Time;durP1;ratioP1;P1;durP2;ratioP2;P2;SDS_P1;SDS_P2;PMS_P1;PMS_P2;Temp;Humidity;BMP_temperature;BMP_pressure;BME280_temperature;BME280_humidity;BME280_pressure;Samples;Min_cycle;Max_cycle;Signal;HPM_P1;HPM_P2
2023/10/08 04:16:37;;;;;;;;;;;14.50;99.50;;;;;;5449915;22;19925;-66
2023/10/08 04:19:03;;;;;;;;;;;14.40;99.70;;;;;;4983628;28;20265;-67
2023/10/08 04:21:29;;;;;;;;;;;14.50;99.60;;;;;;4975357;28;19910;-67
2023/10/08 04:23:57;;;;;;;;;;;14.60;99.60;;;;;;4975311;28;19910;-67
2023/10/08 04:26:25;;;;;;;;;;;14.60;99.50;;;;;;4974977;28;19993;-67
2023/10/08 04:28:57;;;;;;;;;;;14.60;99.60;;;;;;4975119;28;19910;-67
2023/10/08 04:31:28;;;;;;;;;;;14.50;99.80;;;;;;4995915;23;19914;-67
2023/10/08 04:33:54;;;;;;;;;;;14.50;99.80;;;;;;4984802;28;19922;-67
2023/10/08 04:36:20;;;;;;;;;;;14.50;99.90;;;;;;4973727;28;19953;-68
2023/10/08 04:38:47;;;;;;;;;;;14.30;99.90;;;;;;4972536;28;19954;-67
2023/10/08 04:41:17;;;;;;;;;;;14.30;99.90;;;;;;4975070;28;20377;-68
2023/10/08 04:43:42;;;;;;;;;;;14.30;99.90;;;;;;4973793;28;20419;-68
2023/10/08 04:46:39;;;;;;;;;;;14.20;99.90;;;;;;4975493;28;20001;-68
2023/10/08 04:49:07;;;;;;;;;;;14.30;99.90;;;;;;4974999;28;19910;-68
2023/10/08 04:51:43;;;;;;;;;;;14.30;99.90;;;;;;4974926;28;19950;-68
2023/10/08 04:54:10;;;;;;;;;;;14.20;99.90;;;;;;4973476;28;19914;-68
2023/10/08 04:56:37;;;;;;;;;;;14.20;99.90;;;;;;4974849;28;20395;-68
2023/10/08 04:59:05;;;;;;;;;;;14.20;99.90;;;;;;4975169;28;19942;-68
2023/10/08 05:04:45;;;;;;;;;;;14.30;99.90;;;;;;4922425;28;19918;-68
2023/10/08 05:21:14;;;;;;;;;;;14.00;99.90;;;;;;4978238;28;19910;-68
2023/10/08 05:25:58;;;;;;;;;;;14.10;99.90;;;;;;4979606;28;20001;-68
2023/10/08 05:28:27;;;;;;;;;;;14.10;99.90;;;;;;4981118;28;19991;-68
2023/10/08 05:30:55;;;;;;;;;;;14.30;99.90;;;;;;4982955;28;19994;-68
2023/10/08 05:33:49;;;;;;;;;;;14.30;99.90;;;;;;4974966;28;20388;-67
2023/10/08 05:36:18;;;;;;;;;;;14.30;99.90;;;;;;4974753;28;19918;-67
2023/10/08 05:39:00;;;;;;;;;;;14.30;99.90;;;;;;4973388;28;19911;-67
2023/10/08 05:41:38;;;;;;;;;;;14.20;99.90;;;;;;4976121;28;19910;-67
2023/10/08 05:44:14;;;;;;;;;;;14.20;99.90;;;;;;4981693;28;19906;-67
2023/10/08 05:46:51;;;;;;;;;;;14.20;99.90;;;;;;4985514;28;19942;-67
2023/10/08 05:49:26;;;;;;;;;;;14.10;99.90;;;;;;4983188;28;19996;-68
2023/10/08 05:57:14;;;;;;;;;;;14.10;99.90;;;;;;4978258;28;20368;-67
2023/10/08 05:59:52;;;;;;;;;;;14.20;99.90;;;;;;4977665;28;20001;-68
2023/10/08 06:02:29;;;;;;;;;;;14.20;99.90;;;;;;4976136;28;20361;-67
2023/10/08 06:18:27;;;;;;;;;;;14.30;99.90;;;;;;4977804;28;19910;-68
2023/10/08 06:21:00;;;;;;;;;;;14.40;99.90;;;;;;4977542;28;19910;-67
2023/10/08 06:23:31;;;;;;;;;;;14.30;99.90;;;;;;4977369;28;20337;-67
2023/10/08 06:25:58;;;;;;;;;;;14.30;99.90;;;;;;4977465;28;19969;-67
2023/10/08 06:28:25;;;;;;;;;;;14.40;99.90;;;;;;4977361;28;19910;-68
2023/10/08 06:30:53;;;;;;;;;;;14.40;99.90;;;;;;4977178;28;19914;-67
2023/10/08 06:33:19;;;;;;;;;;;14.40;99.90;;;;;;4976787;28;19918;-67
2023/10/08 06:35:44;;;;;;;;;;;14.30;99.90;;;;;;4977680;28;20317;-67
2023/10/08 06:38:10;;;;;;;;;;;14.40;99.90;;;;;;4977430;28;19960;-67
2023/10/08 06:43:14;;;;;;;;;;;14.20;99.90;;;;;;4977372;28;20357;-68
2023/10/08 06:45:40;;;;;;;;;;;14.20;99.90;;;;;;4977282;28;19956;-68
2023/10/08 06:48:06;;;;;;;;;;;14.20;99.90;;;;;;4976742;28;19957;-68
2023/10/08 06:50:34;;;;;;;;;;;14.20;99.90;;;;;;4976777;28;19910;-67
2023/10/08 06:52:59;;;;;;;;;;;14.20;99.90;;;;;;4976848;28;19914;-67
2023/10/08 06:55:27;;;;;;;;;;;14.30;99.90;;;;;;4990916;28;19910;-67
2023/10/08 06:57:52;;;;;;;;;;;14.40;99.90;;;;;;4976692;28;19910;-68
2023/10/08 07:00:37;;;;;;;;;;;14.40;99.90;;;;;;4976952;28;19917;-68
2023/10/08 07:03:03;;;;;;;;;;;14.30;99.90;;;;;;4976652;28;19956;-68
2023/10/08 07:05:29;;;;;;;;;;;14.40;99.90;;;;;;4977186;28;19937;-68
2023/10/08 07:07:54;;;;;;;;;;;14.40;99.90;;;;;;4976675;28;19933;-68
2023/10/08 07:10:23;;;;;;;;;;;14.20;99.90;;;;;;4976568;28;19914;-68
2023/10/08 07:12:53;;;;;;;;;;;14.20;99.90;;;;;;4976334;28;19917;-68
2023/10/08 07:15:23;;;;;;;;;;;14.30;99.90;;;;;;4976335;28;19910;-68
2023/10/08 07:17:51;;;;;;;;;;;14.30;99.90;;;;;;4976303;28;19910;-68
2023/10/08 07:20:21;;;;;;;;;;;14.50;99.90;;;;;;4976481;28;20361;-68
2023/10/08 07:22:50;;;;;;;;;;;14.70;99.90;;;;;;4976259;28;19961;-68
2023/10/08 07:25:20;;;;;;;;;;;14.60;99.90;;;;;;4976295;28;20270;-68
2023/10/08 07:27:46;;;;;;;;;;;14.60;99.90;;;;;;4958368;28;20007;-68
2023/10/08 07:30:12;;;;;;;;;;;14.70;99.90;;;;;;4955461;29;20437;-68
2023/10/08 07:32:41;;;;;;;;;;;14.80;99.90;;;;;;4967383;28;19918;-68
2023/10/08 07:35:30;;;;;;;;;;;14.90;99.90;;;;;;4976250;28;19937;-68
2023/10/08 07:37:53;;;;;;;;;;;14.90;99.90;;;;;;4975496;28;19966;-66
2023/10/08 07:40:28;;;;;;;;;;;14.90;99.90;;;;;;4975693;28;19910;-69
2023/10/08 07:42:54;;;;;;;;;;;14.90;99.90;;;;;;4977230;28;19941;-67
2023/10/08 07:45:21;;;;;;;;;;;15.00;99.90;;;;;;4977149;28;20404;-67
2023/10/08 07:47:47;;;;;;;;;;;15.00;99.90;;;;;;4975516;28;19917;-67
2023/10/08 07:50:15;;;;;;;;;;;15.10;99.90;;;;;;4974531;28;19978;-67
2023/10/08 07:52:44;;;;;;;;;;;15.20;99.90;;;;;;4974373;28;20373;-67
2023/10/08 07:55:09;;;;;;;;;;;15.40;99.90;;;;;;4975636;28;19914;-66
2023/10/08 07:57:35;;;;;;;;;;;15.50;99.90;;;;;;4975782;28;19910;-67
2023/10/08 08:00:22;;;;;;;;;;;15.50;99.90;;;;;;4974355;28;19910;-67
2023/10/08 08:02:49;;;;;;;;;;;15.60;99.90;;;;;;4962875;28;19911;-67
2023/10/08 08:05:17;;;;;;;;;;;15.60;99.90;;;;;;4954818;28;19958;-67
2023/10/08 08:07:45;;;;;;;;;;;15.80;99.90;;;;;;4956395;28;20373;-66
2023/10/08 08:10:11;;;;;;;;;;;16.00;99.90;;;;;;4956780;28;19923;-67
2023/10/08 08:12:37;;;;;;;;;;;16.20;99.90;;;;;;4956066;28;19914;-67
2023/10/08 08:15:14;;;;;;;;;;;16.30;99.90;;;;;;4955119;28;20346;-67
2023/10/08 08:17:41;;;;;;;;;;;16.40;99.90;;;;;;4954691;29;20284;-66
2023/10/08 08:20:17;;;;;;;;;;;16.50;99.90;;;;;;4970863;28;20373;-67
2023/10/08 08:22:49;;;;;;;;;;;16.70;99.90;;;;;;4956417;28;19948;-67
2023/10/08 08:25:26;;;;;;;;;;;16.80;99.90;;;;;;4954908;29;19910;-67
2023/10/08 08:27:53;;;;;;;;;;;17.00;99.90;;;;;;4956560;28;19917;-66
2023/10/08 08:30:19;;;;;;;;;;;17.10;99.90;;;;;;4961279;28;19977;-67
2023/10/08 08:32:48;;;;;;;;;;;17.20;99.90;;;;;;4972629;28;19918;-67
2023/10/08 08:35:16;;;;;;;;;;;17.30;99.90;;;;;;4963240;28;19910;-67
2023/10/08 08:37:46;;;;;;;;;;;17.40;99.90;;;;;;4976980;28;21503;-67
2023/10/08 08:40:17;;;;;;;;;;;17.40;99.90;;;;;;4963052;28;20436;-67
2023/10/08 08:42:46;;;;;;;;;;;17.60;99.90;;;;;;4970539;28;20373;-67
2023/10/08 08:45:13;;;;;;;;;;;17.70;99.60;;;;;;4958817;28;20332;-67
2023/10/08 08:47:40;;;;;;;;;;;17.70;99.50;;;;;;4974089;28;20292;-67
2023/10/08 08:50:08;;;;;;;;;;;17.60;99.90;;;;;;4971837;28;19922;-66
2023/10/08 08:52:39;;;;;;;;;;;17.70;99.50;;;;;;4974743;28;20004;-67
2023/10/08 08:55:09;;;;;;;;;;;17.80;99.60;;;;;;4971227;28;20397;-67
2023/10/08 08:57:39;;;;;;;;;;;17.80;99.10;;;;;;4961958;28;19910;-66
2023/10/08 09:00:08;;;;;;;;;;;17.90;99.10;;;;;;4970401;28;19914;-67
2023/10/08 09:02:35;;;;;;;;;;;18.00;99.10;;;;;;4968426;28;20013;-67
2023/10/08 09:05:12;;;;;;;;;;;18.10;99.10;;;;;;4970969;28;19914;-66
2023/10/08 09:07:57;;;;;;;;;;;18.10;99.00;;;;;;4971336;28;19910;-67
2023/10/08 09:10:29;;;;;;;;;;;18.20;98.80;;;;;;4971876;28;19917;-67
2023/10/08 09:12:59;;;;;;;;;;;18.40;98.50;;;;;;4967659;28;19914;-67
2023/10/08 09:15:25;;;;;;;;;;;18.50;98.10;;;;;;4966003;28;19997;-67
2023/10/08 09:17:52;;;;;;;;;;;18.50;98.00;;;;;;4967277;28;20020;-67
2023/10/08 09:20:19;;;;;;;;;;;18.70;97.60;;;;;;4968465;28;20314;-67
2023/10/08 09:22:47;;;;;;;;;;;19.10;97.50;;;;;;4966530;28;19910;-67
2023/10/08 09:25:22;;;;;;;;;;;19.40;96.90;;;;;;4967656;28;20053;-68
2023/10/08 09:27:55;;;;;;;;;;;19.50;96.70;;;;;;4966194;28;20353;-67
2023/10/08 09:30:21;;;;;;;;;;;19.60;96.20;;;;;;4976502;28;20329;-68
2023/10/08 09:32:48;;;;;;;;;;;19.50;96.20;;;;;;4966159;28;19929;-68
2023/10/08 09:35:13;;;;;;;;;;;19.50;96.40;;;;;;4959275;28;19917;-68
2023/10/08 09:37:39;;;;;;;;;;;19.90;96.10;;;;;;4958898;29;19910;-67
2023/10/08 09:40:09;;;;;;;;;;;20.30;95.40;;;;;;4959040;29;19911;-69
2023/10/08 09:42:35;;;;;;;;;;;20.60;94.60;;;;;;4958911;28;19917;-68
2023/10/08 09:45:05;;;;;;;;;;;20.70;94.40;;;;;;4958863;29;20373;-67
2023/10/08 09:47:34;;;;;;;;;;;20.80;94.40;;;;;;4958348;29;19960;-68
2023/10/08 09:50:02;;;;;;;;;;;21.00;94.20;;;;;;4958725;28;19930;-67
2023/10/08 09:52:31;;;;;;;;;;;21.20;94.20;;;;;;4958597;28;19910;-68
2023/10/08 09:54:59;;;;;;;;;;;21.80;93.90;;;;;;4958581;29;19978;-68
2023/10/08 09:57:26;;;;;;;;;;;23.20;92.80;;;;;;4958824;29;19933;-68
2023/10/08 09:59:53;;;;;;;;;;;24.60;91.20;;;;;;4957263;28;19914;-68
2023/10/08 10:02:21;;;;;;;;;;;24.80;90.60;;;;;;4966700;28;20448;-68
2023/10/08 10:04:51;;;;;;;;;;;25.60;90.10;;;;;;4978220;28;19914;-67
2023/10/08 10:07:16;;;;;;;;;;;27.20;87.40;;;;;;4976795;28;20443;-67
2023/10/08 10:09:48;;;;;;;;;;;28.10;84.00;;;;;;4976642;28;19958;-68
2023/10/08 10:12:17;;;;;;;;;;;28.50;82.60;;;;;;4977831;28;19910;-68
2023/10/08 10:14:47;;;;;;;;;;;28.50;81.00;;;;;;4977703;28;19914;-68
2023/10/08 10:17:22;;;;;;;;;;;28.80;81.00;;;;;;4977778;28;19918;-67
2023/10/08 10:19:54;;;;;;;;;;;29.50;79.20;;;;;;4977789;28;20340;-68
2023/10/08 10:22:28;;;;;;;;;;;28.80;78.90;;;;;;4976264;28;20407;-67
2023/10/08 10:24:53;;;;;;;;;;;28.70;79.60;;;;;;4977838;28;19918;-68
2023/10/08 10:27:19;;;;;;;;;;;28.40;79.70;;;;;;4977859;28;20324;-68
2023/10/08 10:29:45;;;;;;;;;;;28.90;79.90;;;;;;4977167;28;19973;-67
2023/10/08 10:32:14;;;;;;;;;;;29.30;79.10;;;;;;4971530;28;19960;-68
2023/10/08 10:34:41;;;;;;;;;;;29.80;78.90;;;;;;4958254;28;20369;-69
2023/10/08 10:37:18;;;;;;;;;;;30.30;78.00;;;;;;4958276;28;19910;-69
2023/10/08 10:40:00;;;;;;;;;;;30.10;77.70;;;;;;4958207;28;19911;-69
2023/10/08 10:42:28;;;;;;;;;;;30.60;76.90;;;;;;4958271;28;20005;-69
2023/10/08 10:44:55;;;;;;;;;;;30.80;76.50;;;;;;4958443;28;19981;-69
2023/10/08 10:49:52;;;;;;;;;;;31.70;74.70;;;;;;4957762;28;20317;-69
2023/10/08 10:52:31;;;;;;;;;;;31.00;74.70;;;;;;4958138;28;19911;-68
2023/10/08 10:57:42;;;;;;;;;;;28.00;79.10;;;;;;4957605;28;19915;-67
2023/10/08 11:02:56;;;;;;;;;;;25.70;83.70;;;;;;4970812;28;19918;-67
2023/10/08 11:05:28;;;;;;;;;;;25.00;85.40;;;;;;4977249;28;19911;-68
2023/10/08 11:07:58;;;;;;;;;;;24.40;86.40;;;;;;4977566;28;19910;-67
2023/10/08 11:10:24;;;;;;;;;;;23.80;87.90;;;;;;4976857;28;19910;-69
2023/10/08 11:12:53;;;;;;;;;;;23.40;88.90;;;;;;4963615;28;19987;-69
2023/10/08 11:15:19;;;;;;;;;;;23.20;90.20;;;;;;4975193;28;19914;-68
2023/10/08 11:17:44;;;;;;;;;;;23.20;90.30;;;;;;4976524;28;20332;-67
2023/10/08 11:20:39;;;;;;;;;;;23.20;90.10;;;;;;4976656;28;19985;-68
2023/10/08 11:23:28;;;;;;;;;;;23.20;90.20;;;;;;4972201;28;19910;-67
2023/10/08 11:25:55;;;;;;;;;;;23.20;90.00;;;;;;4976082;28;19933;-67
2023/10/08 11:28:20;;;;;;;;;;;23.10;89.70;;;;;;4976631;28;20292;-68
2023/10/08 11:30:50;;;;;;;;;;;23.10;89.70;;;;;;4975224;28;19922;-67
2023/10/08 11:33:17;;;;;;;;;;;23.00;90.00;;;;;;4972916;28;19918;-68
2023/10/08 11:35:58;;;;;;;;;;;23.00;90.30;;;;;;4978429;28;19910;-67
2023/10/08 11:38:24;;;;;;;;;;;22.90;90.20;;;;;;4980697;28;20379;-68
2023/10/08 11:40:51;;;;;;;;;;;23.00;90.10;;;;;;4978183;28;19910;-68
2023/10/08 11:43:16;;;;;;;;;;;23.00;90.20;;;;;;4976277;28;19910;-68
2023/10/08 11:45:48;;;;;;;;;;;23.00;90.20;;;;;;4976391;28;19916;-68
2023/10/08 11:48:13;;;;;;;;;;;23.00;90.30;;;;;;4974831;28;20355;-67
2023/10/08 11:50:40;;;;;;;;;;;23.00;90.00;;;;;;4977722;28;19964;-68
2023/10/08 11:53:05;;;;;;;;;;;23.00;90.10;;;;;;4975275;28;19915;-68
2023/10/08 11:55:42;;;;;;;;;;;23.00;90.20;;;;;;4976468;28;19967;-67
2023/10/08 11:58:11;;;;;;;;;;;23.10;90.00;;;;;;4976701;28;20335;-67
2023/10/08 12:00:43;;;;;;;;;;;23.10;90.10;;;;;;4976181;28;20324;-68
2023/10/08 12:03:18;;;;;;;;;;;23.20;90.00;;;;;;4976399;28;19911;-67
2023/10/08 12:05:47;;;;;;;;;;;23.20;90.00;;;;;;4976280;28;19910;-68
2023/10/08 12:08:22;;;;;;;;;;;23.20;90.40;;;;;;4974953;28;19910;-68
2023/10/08 12:10:49;;;;;;;;;;;23.20;90.20;;;;;;4975747;28;19957;-68
2023/10/08 12:13:18;;;;;;;;;;;23.20;90.20;;;;;;4975329;28;19914;-68
2023/10/08 12:15:44;;;;;;;;;;;23.20;90.10;;;;;;4974415;28;19941;-69
2023/10/08 12:18:24;;;;;;;;;;;23.30;90.50;;;;;;4975575;28;19910;-69
2023/10/08 12:20:50;;;;;;;;;;;23.30;90.50;;;;;;4974672;28;19917;-70
2023/10/08 12:23:29;;;;;;;;;;;23.40;90.30;;;;;;4975517;28;20008;-69
2023/10/08 12:25:55;;;;;;;;;;;23.40;90.30;;;;;;4975661;28;19938;-66
2023/10/08 12:28:23;;;;;;;;;;;23.40;90.60;;;;;;4974204;28;19914;-67
2023/10/08 12:30:52;;;;;;;;;;;23.30;90.70;;;;;;4975177;28;19918;-69
2023/10/08 12:33:21;;;;;;;;;;;23.50;90.50;;;;;;4974770;28;19982;-67
2023/10/08 12:35:47;;;;;;;;;;;23.60;90.60;;;;;;4975114;28;20373;-67
2023/10/08 12:38:14;;;;;;;;;;;23.50;90.60;;;;;;4975002;28;19917;-66
2023/10/08 12:40:47;;;;;;;;;;;23.60;90.70;;;;;;4975249;28;19937;-67
2023/10/08 12:43:13;;;;;;;;;;;23.50;90.60;;;;;;4974999;28;19914;-67
2023/10/08 12:45:38;;;;;;;;;;;23.60;90.50;;;;;;4975057;28;20001;-68
2023/10/08 12:48:05;;;;;;;;;;;23.60;90.80;;;;;;4974807;28;20045;-67
2023/10/08 12:50:42;;;;;;;;;;;23.60;90.60;;;;;;4974539;28;19917;-67
2023/10/08 12:53:11;;;;;;;;;;;23.80;90.40;;;;;;4976013;28;19936;-67
2023/10/08 12:55:39;;;;;;;;;;;23.80;90.50;;;;;;4977246;28;19910;-67
2023/10/08 12:58:09;;;;;;;;;;;23.80;90.70;;;;;;4977445;28;20345;-68
2023/10/08 13:00:37;;;;;;;;;;;23.70;90.90;;;;;;4977008;28;19910;-68
2023/10/08 13:03:05;;;;;;;;;;;23.70;91.00;;;;;;4975171;28;20321;-69
2023/10/08 13:05:33;;;;;;;;;;;23.80;90.80;;;;;;4955156;28;20424;-68
2023/10/08 13:08:03;;;;;;;;;;;23.90;90.50;;;;;;4955982;28;19957;-68
2023/10/08 13:10:30;;;;;;;;;;;23.90;90.50;;;;;;4955641;28;19910;-67
2023/10/08 13:12:56;;;;;;;;;;;23.90;90.30;;;;;;4955497;28;19954;-67
2023/10/08 13:15:25;;;;;;;;;;;24.10;90.20;;;;;;4955676;28;20381;-67
2023/10/08 13:17:52;;;;;;;;;;;24.00;90.20;;;;;;4970588;28;19937;-68
2023/10/08 13:20:18;;;;;;;;;;;24.10;90.30;;;;;;4956121;28;19911;-68
2023/10/08 13:22:43;;;;;;;;;;;23.90;90.50;;;;;;4955484;28;19911;-69
2023/10/08 13:25:09;;;;;;;;;;;24.00;90.50;;;;;;4955911;28;19911;-68
2023/10/08 13:27:39;;;;;;;;;;;24.00;90.70;;;;;;4955735;28;19910;-69
2023/10/08 13:30:08;;;;;;;;;;;23.90;90.60;;;;;;4955134;28;19915;-68
2023/10/08 13:32:37;;;;;;;;;;;24.00;90.50;;;;;;4965523;28;20285;-67
2023/10/08 13:35:04;;;;;;;;;;;24.00;90.50;;;;;;4974349;28;19918;-68
2023/10/08 13:37:31;;;;;;;;;;;24.10;90.60;;;;;;4969317;28;19965;-69
2023/10/08 13:39:56;;;;;;;;;;;24.20;90.60;;;;;;4971825;28;19925;-68
2023/10/08 13:42:22;;;;;;;;;;;24.10;90.70;;;;;;4975675;28;20305;-67
2023/10/08 13:44:48;;;;;;;;;;;24.00;90.90;;;;;;4967012;28;19910;-68
2023/10/08 13:47:15;;;;;;;;;;;23.90;91.10;;;;;;4967375;28;20290;-68
2023/10/08 13:49:42;;;;;;;;;;;23.90;91.20;;;;;;4973717;28;19918;-68
2023/10/08 13:52:08;;;;;;;;;;;23.90;91.20;;;;;;4973562;28;19972;-68
2023/10/08 13:54:39;;;;;;;;;;;23.90;91.00;;;;;;4974601;28;20372;-67
2023/10/08 13:57:08;;;;;;;;;;;23.90;91.10;;;;;;4972431;28;19929;-68
2023/10/08 13:59:34;;;;;;;;;;;23.90;91.00;;;;;;4969896;28;19929;-68
2023/10/08 14:02:01;;;;;;;;;;;23.80;91.30;;;;;;4973945;28;19913;-68
2023/10/08 14:04:30;;;;;;;;;;;23.90;91.30;;;;;;4976042;28;19914;-68
2023/10/08 14:06:58;;;;;;;;;;;23.90;91.30;;;;;;4977432;28;19937;-68
2023/10/08 14:09:31;;;;;;;;;;;23.80;91.40;;;;;;4967774;28;19922;-68
2023/10/08 14:11:56;;;;;;;;;;;23.90;91.40;;;;;;4968628;28;19914;-69
2023/10/08 14:14:24;;;;;;;;;;;24.00;91.00;;;;;;4976165;28;20288;-68
2023/10/08 14:16:53;;;;;;;;;;;23.80;91.00;;;;;;4973512;28;19918;-68
2023/10/08 14:19:28;;;;;;;;;;;23.90;91.20;;;;;;4972150;28;19921;-67
2023/10/08 14:22:00;;;;;;;;;;;23.80;91.10;;;;;;4971007;28;19922;-67
2023/10/08 14:24:27;;;;;;;;;;;23.80;91.20;;;;;;4969856;28;19917;-69
2023/10/08 14:26:56;;;;;;;;;;;23.70;91.40;;;;;;4972191;28;19997;-68
2023/10/08 14:29:24;;;;;;;;;;;23.70;91.40;;;;;;4969214;28;20365;-69
2023/10/08 14:31:50;;;;;;;;;;;23.70;91.40;;;;;;4960671;28;20378;-69
2023/10/08 14:44:54;;;;;;;;;;;23.60;91.60;;;;;;4982256;28;20320;-67
2023/10/08 14:47:19;;;;;;;;;;;23.70;91.10;;;;;;4976350;28;19910;-67
2023/10/08 14:49:45;;;;;;;;;;;23.70;91.10;;;;;;4977025;28;19942;-67
2023/10/08 14:52:11;;;;;;;;;;;23.70;91.20;;;;;;4976690;28;19914;-67
2023/10/08 14:54:37;;;;;;;;;;;23.80;91.10;;;;;;4977885;28;19921;-69
2023/10/08 14:57:05;;;;;;;;;;;23.60;91.30;;;;;;4978968;28;19910;-69
2023/10/08 14:59:31;;;;;;;;;;;23.80;91.20;;;;;;4977967;28;20020;-69
2023/10/08 15:01:58;;;;;;;;;;;23.80;91.20;;;;;;4977568;28;19910;-68
2023/10/08 15:04:25;;;;;;;;;;;23.70;91.30;;;;;;4978609;28;19914;-69
2023/10/08 15:06:51;;;;;;;;;;;23.60;91.30;;;;;;4977311;28;20373;-69
2023/10/08 15:09:23;;;;;;;;;;;23.60;91.50;;;;;;4976036;28;19910;-68
2023/10/08 15:11:52;;;;;;;;;;;23.50;91.40;;;;;;4977155;28;19997;-68
2023/10/08 15:14:23;;;;;;;;;;;23.50;91.30;;;;;;4976711;28;19933;-68
2023/10/08 15:16:52;;;;;;;;;;;23.60;91.20;;;;;;4977037;28;19961;-68
2023/10/08 15:19:21;;;;;;;;;;;23.50;91.20;;;;;;4975617;28;19910;-67
2023/10/08 15:21:50;;;;;;;;;;;23.50;91.20;;;;;;4977978;28;19916;-69
2023/10/08 15:24:22;;;;;;;;;;;23.40;91.50;;;;;;4979636;28;19910;-69
2023/10/08 15:26:48;;;;;;;;;;;23.40;91.40;;;;;;4981215;28;20277;-69
2023/10/08 15:29:14;;;;;;;;;;;23.40;91.40;;;;;;4985987;28;20277;-68
2023/10/08 15:31:40;;;;;;;;;;;23.40;91.40;;;;;;4980607;28;19915;-69
2023/10/08 15:34:06;;;;;;;;;;;23.40;91.10;;;;;;4992856;28;20357;-68
2023/10/08 15:36:32;;;;;;;;;;;23.40;91.20;;;;;;4976622;28;19946;-69
2023/10/08 15:38:58;;;;;;;;;;;23.30;91.00;;;;;;4975307;28;19910;-69
2023/10/08 15:41:23;;;;;;;;;;;23.10;91.30;;;;;;4976299;28;19910;-69
2023/10/08 15:43:58;;;;;;;;;;;23.00;91.50;;;;;;4976164;28;19965;-69
2023/10/08 15:46:26;;;;;;;;;;;23.10;91.50;;;;;;4976481;28;19916;-69
2023/10/08 15:48:52;;;;;;;;;;;23.10;91.20;;;;;;4974584;28;19937;-68
2023/10/08 15:51:18;;;;;;;;;;;22.90;91.30;;;;;;4976143;28;19910;-69
2023/10/08 15:53:43;;;;;;;;;;;22.80;91.40;;;;;;4975601;28;19914;-70
2023/10/08 15:56:08;;;;;;;;;;;22.80;91.60;;;;;;4975773;28;20365;-69
2023/10/08 15:58:34;;;;;;;;;;;22.60;91.60;;;;;;4975850;28;20388;-69
2023/10/08 16:00:59;;;;;;;;;;;22.60;91.90;;;;;;4975676;28;19990;-70
2023/10/08 16:03:25;;;;;;;;;;;22.50;92.00;;;;;;4957929;28;19911;-70
2023/10/08 16:05:50;;;;;;;;;;;22.50;92.60;;;;;;4956215;28;19914;-69
2023/10/08 16:08:16;;;;;;;;;;;22.40;92.20;;;;;;4956463;28;19910;-68
2023/10/08 16:10:41;;;;;;;;;;;22.20;92.50;;;;;;4955109;29;19945;-65
2023/10/08 16:13:09;;;;;;;;;;;22.20;92.70;;;;;;4956026;28;19910;-66
2023/10/08 16:15:34;;;;;;;;;;;22.10;92.60;;;;;;4959458;28;19950;-68
2023/10/08 16:18:00;;;;;;;;;;;22.00;92.80;;;;;;4969248;28;19961;-68
2023/10/08 16:20:25;;;;;;;;;;;21.90;92.80;;;;;;4968714;28;20005;-69
2023/10/08 16:22:51;;;;;;;;;;;21.80;93.10;;;;;;4970407;28;20341;-68
2023/10/08 16:25:17;;;;;;;;;;;21.70;92.90;;;;;;4966240;28;19933;-68
2023/10/08 16:27:49;;;;;;;;;;;21.60;92.90;;;;;;4972516;28;19965;-67
2023/10/08 16:30:15;;;;;;;;;;;21.60;93.10;;;;;;4965655;28;19918;-68
2023/10/08 16:32:42;;;;;;;;;;;21.60;93.30;;;;;;4963467;28;19929;-68
2023/10/08 16:35:15;;;;;;;;;;;21.50;93.40;;;;;;4968557;28;20370;-71
2023/10/08 16:37:42;;;;;;;;;;;21.50;93.50;;;;;;4965017;28;20336;-71
2023/10/08 16:40:08;;;;;;;;;;;21.40;93.60;;;;;;4965348;28;20285;-70
2023/10/08 16:42:35;;;;;;;;;;;21.30;93.70;;;;;;4966938;28;19910;-70
2023/10/08 16:45:01;;;;;;;;;;;21.20;93.80;;;;;;4966319;28;19997;-70
2023/10/08 16:47:26;;;;;;;;;;;21.10;93.90;;;;;;4963970;28;19910;-70
2023/10/08 16:49:52;;;;;;;;;;;21.10;94.10;;;;;;4964349;28;20042;-70
2023/10/08 16:52:17;;;;;;;;;;;21.00;94.00;;;;;;4965305;28;19910;-70
2023/10/08 16:54:43;;;;;;;;;;;21.00;94.10;;;;;;4966740;28;20304;-71
2023/10/08 16:57:08;;;;;;;;;;;20.90;94.00;;;;;;4965200;28;20303;-69
2023/10/08 16:59:37;;;;;;;;;;;20.80;94.10;;;;;;4964999;28;20310;-70
2023/10/08 17:02:03;;;;;;;;;;;20.80;94.20;;;;;;4969823;28;20281;-69
2023/10/08 17:04:28;;;;;;;;;;;20.70;94.40;;;;;;4965063;28;19997;-69
2023/10/08 17:06:56;;;;;;;;;;;20.60;94.40;;;;;;4966257;28;19917;-70
2023/10/08 17:09:22;;;;;;;;;;;20.60;94.60;;;;;;4963343;28;19910;-69
2023/10/08 17:11:48;;;;;;;;;;;20.50;94.70;;;;;;4963644;28;19910;-70
2023/10/08 17:14:14;;;;;;;;;;;20.50;94.60;;;;;;4965833;28;20391;-70
2023/10/08 17:16:40;;;;;;;;;;;20.40;94.60;;;;;;4963993;28;19910;-71
2023/10/08 17:19:06;;;;;;;;;;;20.40;94.90;;;;;;4972251;28;19937;-70
2023/10/08 17:21:31;;;;;;;;;;;20.40;94.80;;;;;;4973425;28;19917;-70
2023/10/08 17:23:57;;;;;;;;;;;20.40;94.80;;;;;;4974907;28;20357;-71
2023/10/08 17:26:22;;;;;;;;;;;20.40;94.80;;;;;;4974864;28;19981;-71
2023/10/08 17:28:48;;;;;;;;;;;20.40;94.80;;;;;;4973480;28;20329;-70
2023/10/08 17:31:13;;;;;;;;;;;20.30;94.60;;;;;;4970759;28;19925;-69
2023/10/08 17:33:41;;;;;;;;;;;20.30;94.60;;;;;;4970186;28;20013;-69
2023/10/08 17:36:07;;;;;;;;;;;20.20;94.80;;;;;;4973179;28;19914;-70
2023/10/08 17:38:33;;;;;;;;;;;20.20;94.90;;;;;;4974563;28;20364;-70
2023/10/08 17:40:58;;;;;;;;;;;20.10;95.00;;;;;;4973906;28;19938;-70
2023/10/08 17:43:24;;;;;;;;;;;20.10;95.00;;;;;;4974908;28;20020;-66
2023/10/08 17:45:52;;;;;;;;;;;20.10;95.10;;;;;;4975848;28;20404;-65
2023/10/08 17:48:18;;;;;;;;;;;20.20;94.90;;;;;;4975139;28;19960;-64
2023/10/08 17:50:44;;;;;;;;;;;20.00;95.30;;;;;;4975465;28;19914;-65
2023/10/08 17:53:10;;;;;;;;;;;19.90;95.60;;;;;;4976481;28;19914;-66
2023/10/08 17:55:35;;;;;;;;;;;19.80;95.90;;;;;;4972584;28;20053;-68
2023/10/08 17:58:02;;;;;;;;;;;19.70;96.10;;;;;;4993728;28;19950;-66
2023/10/08 18:00:30;;;;;;;;;;;19.60;96.20;;;;;;4978025;28;19911;-68
2023/10/08 18:02:56;;;;;;;;;;;19.60;96.10;;;;;;4977992;28;19925;-68
2023/10/08 18:05:26;;;;;;;;;;;19.50;96.50;;;;;;4977707;28;20004;-67
2023/10/08 18:07:54;;;;;;;;;;;19.50;96.60;;;;;;4978317;28;20264;-68
2023/10/08 18:10:22;;;;;;;;;;;19.50;96.70;;;;;;4978294;28;20009;-68
2023/10/08 18:12:47;;;;;;;;;;;19.50;96.50;;;;;;4977656;28;19910;-68
2023/10/08 18:15:18;;;;;;;;;;;19.40;96.50;;;;;;4977657;28;19918;-68
2023/10/08 18:17:44;;;;;;;;;;;19.40;96.50;;;;;;4977669;28;19941;-69
2023/10/08 18:20:11;;;;;;;;;;;19.40;96.60;;;;;;4961920;28;19918;-67
2023/10/08 18:22:39;;;;;;;;;;;19.40;96.60;;;;;;4958401;28;19911;-68
2023/10/08 18:25:05;;;;;;;;;;;19.40;96.70;;;;;;4959401;29;20356;-66
2023/10/08 18:27:30;;;;;;;;;;;19.30;96.80;;;;;;4959919;28;20247;-67
2023/10/08 18:29:57;;;;;;;;;;;19.30;96.90;;;;;;4969623;28;19922;-68
2023/10/08 18:32:22;;;;;;;;;;;19.20;97.10;;;;;;4973031;28;20316;-69
2023/10/08 18:34:48;;;;;;;;;;;19.10;97.20;;;;;;4977128;28;19968;-68
2023/10/08 18:37:16;;;;;;;;;;;19.10;97.40;;;;;;4965602;28;19912;-68
2023/10/08 18:39:43;;;;;;;;;;;19.00;97.60;;;;;;4965281;28;19918;-68
2023/10/08 18:42:08;;;;;;;;;;;18.90;97.80;;;;;;4958519;28;20389;-69
2023/10/08 18:44:34;;;;;;;;;;;18.90;97.90;;;;;;4958108;28;19979;-68
2023/10/08 18:46:59;;;;;;;;;;;18.90;98.10;;;;;;4957811;28;19914;-69
2023/10/08 18:49:28;;;;;;;;;;;18.80;98.20;;;;;;4957361;28;19917;-70
2023/10/08 18:51:53;;;;;;;;;;;18.80;98.40;;;;;;4958001;28;19910;-68
2023/10/08 18:54:19;;;;;;;;;;;18.80;98.50;;;;;;4957899;28;19970;-69
2023/10/08 18:56:44;;;;;;;;;;;18.80;98.60;;;;;;4957693;28;19981;-69
2023/10/08 18:59:10;;;;;;;;;;;18.70;98.70;;;;;;4958030;28;19977;-70
2023/10/08 19:01:37;;;;;;;;;;;18.70;98.90;;;;;;4960494;28;19910;-68
2023/10/08 19:04:06;;;;;;;;;;;18.60;99.00;;;;;;4976805;28;19910;-68
2023/10/08 19:06:31;;;;;;;;;;;18.60;99.20;;;;;;4976975;28;19922;-69
2023/10/08 19:08:57;;;;;;;;;;;18.40;99.60;;;;;;4976877;28;20297;-70
2023/10/08 19:11:24;;;;;;;;;;;18.40;99.40;;;;;;4976834;28;20392;-68
2023/10/08 19:13:49;;;;;;;;;;;18.40;99.60;;;;;;4975458;28;19914;-68
2023/10/08 19:16:16;;;;;;;;;;;18.40;99.70;;;;;;4977036;28;19910;-69
2023/10/08 19:18:44;;;;;;;;;;;18.30;99.90;;;;;;4976509;28;19910;-69
2023/10/08 19:21:25;;;;;;;;;;;18.40;99.90;;;;;;4976388;28;19946;-69
2023/10/08 19:23:51;;;;;;;;;;;18.30;99.90;;;;;;4977002;28;19929;-69
2023/10/08 19:26:19;;;;;;;;;;;18.30;99.90;;;;;;4976677;28;19917;-69
2023/10/08 19:28:45;;;;;;;;;;;18.30;99.90;;;;;;4976394;28;19910;-70
2023/10/08 19:31:11;;;;;;;;;;;18.40;99.90;;;;;;4976338;28;19965;-69
2023/10/08 19:33:39;;;;;;;;;;;18.30;99.90;;;;;;4976311;28;19929;-68
2023/10/08 19:36:05;;;;;;;;;;;18.20;99.90;;;;;;4976394;28;20001;-69
2023/10/08 19:38:30;;;;;;;;;;;18.20;99.90;;;;;;4976280;28;19960;-68